• Join FlightAware (Why Join?)
  • Login
  • US Flag 
Trick or treat! (Boo!!) 
05:35PM EDT


 

Airport Tracker/Info


-or-


 

Live Flight TrackerFlight Track Log ✈ N424AG ✈ 05-Jun-2013 ✈ KFAR - KESC

Flight Track Log - Related Links

Times and Time Zones

All times are in EDT time to prevent confusion due to time zone crossing. See the N424AG flight status page for this flight to view local times or setup timezone preferences in your user account.

Time Position Orientation Groundspeed Altitude Reporting Facility
EDT Latitude Longitude Course Direction KTS MPH feet Rate Location/Type
04:58PM 46.9169 -96.6875 104° East 100 115 3,600  Level Minneapolis Center
04:59PM 46.9133 -96.6439 97° East 104 120 4,400 720 Climbing Minneapolis Center
05:00PM 46.9100 -96.6011 96° East 108 124 5,200 720 Climbing Minneapolis Center
05:01PM 46.8937 -96.4797 96° East  Level Estimated
05:01PM 46.9058 -96.5497 97° East 113 130 6,000  Level Minneapolis Center
05:02PM 46.8865 -96.4128 99° East  Level FlightAware Approximate
05:02PM 46.9017 -96.5014 97° East 115 132 6,800  Level Minneapolis Center
05:03PM 46.8810 -96.3457 104° East  Level Estimated
05:03PM 46.8975 -96.4514 97° East 117 135 7,500  Level Minneapolis Center
05:04PM 46.8936 -96.4042 97° East 122 140 8,100 600 Climbing Minneapolis Center
05:05PM 46.8897 -96.3542 96° East 119 137 8,800 600 Climbing Minneapolis Center
05:06PM 46.8853 -96.3022 97° East 123 142 9,400 540 Climbing Minneapolis Center
05:07PM 46.8806 -96.2486 97° East 126 145 10,000 540 Climbing Minneapolis Center
05:08PM 46.8764 -96.1936 96° East 130 150 10,600 480 Climbing Minneapolis Center
05:09PM 46.8711 -96.1392 98° East 131 151 11,000 180 Climbing Minneapolis Center
05:10PM 46.8667 -96.0761 96° East 151 174 11,000  Level Minneapolis Center
05:11PM 46.8608 -96.0125 98° East 163 188 11,000  Level Minneapolis Center
05:12PM 46.8539 -95.9428 98° East 166 191 11,000  Level Minneapolis Center
05:13PM 46.8492 -95.8750 96° East 161 185 11,000  Level Minneapolis Center
05:14PM 46.8431 -95.8061 97° East 163 188 11,000  Level Minneapolis Center
05:15PM 46.8356 -95.7369 99° East 166 191 11,000  Level Minneapolis Center
05:16PM 46.8308 -95.6669 96° East 168 193 11,000  Level Minneapolis Center
05:17PM 46.8244 -95.5986 98° East 163 188 11,000  Level Minneapolis Center
05:18PM 46.8183 -95.5350 98° East 162 186 11,000  Level Minneapolis Center
05:19PM 46.8117 -95.4669 98° East 164 189 11,000  Level Minneapolis Center
05:20PM 46.8064 -95.4072 97° East 160 184 11,000  Level Minneapolis Center
05:22PM 46.8017 -95.3436 96° East 159 183 11,000  Level Minneapolis Center
05:23PM 46.7939 -95.2656 98° East 161 185 11,000  Level Minneapolis Center
05:24PM 46.7878 -95.2019 98° East 159 183 11,000  Level Minneapolis Center
05:25PM 46.7811 -95.1381 99° East 160 184 11,000  Level Minneapolis Center
05:26PM 46.7758 -95.0731 97° East 161 185 11,000  Level Minneapolis Center
05:27PM 46.7694 -95.0075 98° East 163 188 11,000  Level Minneapolis Center
05:28PM 46.7628 -94.9431 99° East 162 186 11,000  Level Minneapolis Center
05:29PM 46.7558 -94.8653 97° East 161 185 11,000  Level Minneapolis Center
05:30PM 46.7494 -94.8014 98° East 160 184 11,000  Level Minneapolis Center
05:31PM 46.7436 -94.7358 97° East 163 188 11,000  Level Minneapolis Center
05:32PM 46.7367 -94.6711 99° East 163 188 11,000  Level Minneapolis Center
05:33PM 46.7303 -94.6061 98° East 163 188 11,000  Level Minneapolis Center
05:34PM 46.7242 -94.5439 98° East 158 182 11,000  Level Minneapolis Center
05:35PM 46.7167 -94.4717 99° East 153 176 11,000  Level Minneapolis Center
05:36PM 46.7100 -94.4119 99° East 152 175 11,000  Level Minneapolis Center
05:37PM 46.7050 -94.3522 97° East 149 171 11,000  Level Minneapolis Center
05:38PM 46.6978 -94.2894 99° East 154 177 11,000  Level Minneapolis Center
05:39PM 46.6925 -94.2297 97° East 154 177 11,000  Level Minneapolis Center
05:40PM 46.6847 -94.1586 99° East 150 173 11,000  Level Minneapolis Center
05:41PM 46.6781 -94.0969 99° East 153 176 11,000  Level Minneapolis Center
05:42PM 46.6719 -94.0350 98° East 154 177 11,000  Level Minneapolis Center
05:43PM 46.6653 -93.9739 99° East 153 176 11,000  Level Minneapolis Center
05:44PM 46.6592 -93.9139 98° East 153 176 11,000  Level Minneapolis Center
05:45PM 46.6522 -93.8531 99° East 153 176 11,000  Level Minneapolis Center
05:46PM 46.6444 -93.7811 99° East 151 174 11,000  Level Minneapolis Center
05:47PM 46.6383 -93.7183 98° East 154 177 11,000  Level Minneapolis Center
05:48PM 46.6314 -93.6597 100° East 152 175 11,000  Level Minneapolis Center
05:49PM 46.6256 -93.5997 98° East 151 174 11,000  Level Minneapolis Center
05:51PM 46.6186 -93.5397 100° East 151 174 11,000  Level Minneapolis Center
05:52PM 46.6108 -93.4661 99° East 153 176 11,000  Level Minneapolis Center
05:53PM 46.6044 -93.4053 99° East 153 176 11,000 -60 Level Minneapolis Center
05:54PM 46.5975 -93.3442 99° East 154 177 10,900 -60 Descending Minneapolis Center
05:55PM 46.5906 -93.2817 99° East 156 180 10,900  Level Minneapolis Center
05:56PM 46.5836 -93.2208 99° East 155 178 10,900  Level Minneapolis Center
05:57PM 46.5769 -93.1597 99° East 154 177 10,900  Level Minneapolis Center
05:58PM 46.5681 -93.0831 100° East 159 183 10,900  Level Minneapolis Center
05:59PM 46.5614 -93.0217 99° East 157 181 10,900  Level Minneapolis Center
06:00PM 46.5542 -92.9608 100° East 155 178 10,900  Level Minneapolis Center
06:01PM 46.5475 -92.9006 99° East 153 176 10,900  Level Minneapolis Center
06:02PM 46.5408 -92.8408 99° East 152 175 10,900  Level Minneapolis Center
06:03PM 46.5319 -92.7675 100° East 153 176 10,900  Level Minneapolis Center
06:04PM 46.5253 -92.7078 99° East 152 175 10,900  Level Minneapolis Center
06:05PM 46.5178 -92.6469 100° East 152 175 10,900  Level Minneapolis Center
06:06PM 46.5111 -92.5853 99° East 153 176 10,900  Level Minneapolis Center
06:07PM 46.5033 -92.5228 100° East 156 180 10,900  Level Minneapolis Center
06:08PM 46.4958 -92.4608 100° East 157 181 10,900  Level Minneapolis Center
06:09PM 46.4872 -92.3861 99° East 157 181 10,900  Level Minneapolis Center
06:10PM 46.4800 -92.3225 99° East 158 182 10,900  Level Minneapolis Center
06:11PM 46.4722 -92.2603 100° East 159 183 10,900  Level Minneapolis Center
06:12PM 46.4642 -92.1981 101° East 158 182 10,900  Level Minneapolis Center
06:13PM 46.4564 -92.1342 100° East 159 183 10,900  Level Minneapolis Center
06:14PM 46.4472 -92.0583 100° East 160 184 10,900  Level Minneapolis Center
06:15PM 46.4397 -91.9972 100° East 156 180 10,900  Level Minneapolis Center
06:16PM 46.4322 -91.9350 100° East 157 181 10,900  Level Minneapolis Center
06:17PM 46.4244 -91.8739 100° East 157 181 10,900  Level Minneapolis Center
06:18PM 46.4169 -91.8117 100° East 156 180 10,900  Level Minneapolis Center
06:19PM 46.4094 -91.7528 100° East 152 175 10,900  Level Minneapolis Center
06:21PM 46.4000 -91.6781 100° East 158 182 10,900  Level Minneapolis Center
06:22PM 46.3925 -91.6158 100° East 159 183 10,900  Level Minneapolis Center
06:23PM 46.3839 -91.5522 101° East 159 183 11,000  Climbing Minneapolis Center
06:24PM 46.3778 -91.4925 98° East 152 175 11,000  Level Minneapolis Center
06:25PM 46.3686 -91.4308 102° East 156 180 11,000  Level Minneapolis Center
06:26PM 46.3606 -91.3686 101° East 158 182 11,000  Level Minneapolis Center
06:27PM 46.3511 -91.2931 100° East 160 184 11,000  Level Minneapolis Center
06:28PM 46.3433 -91.2314 100° East 156 180 11,000  Level Minneapolis Center
06:29PM 46.3353 -91.1706 101° East 155 178 11,000  Level Minneapolis Center
06:30PM 46.3275 -91.1083 100° East 157 181 11,000  Level Minneapolis Center
06:31PM 46.3189 -91.0467 101° East 157 181 11,000  Level Minneapolis Center
06:32PM 46.3114 -90.9878 100° East 151 174 11,000  Level Minneapolis Center
06:33PM 46.3014 -90.9169 102° East 151 174 11,000  Level Minneapolis Center
06:34PM 46.2933 -90.8581 101° East 150 173 11,000  Level Minneapolis Center
06:35PM 46.2856 -90.7981 101° East 150 173 11,000  Level Minneapolis Center
06:36PM 46.2767 -90.7406 103° East 148 170 11,000  Level Minneapolis Center
06:37PM 46.2692 -90.6789 100° East 154 177 11,000  Level Minneapolis Center
06:38PM 46.2600 -90.6194 103° East 154 177 11,000  Level Minneapolis Center
06:39PM 46.2508 -90.5456 100° East 155 178 11,000  Level Minneapolis Center
06:40PM 46.2431 -90.4869 101° East 150 173 11,000  Level Minneapolis Center
06:41PM 46.2356 -90.4308 101° East 145 167 11,100  Climbing Minneapolis Center
06:42PM 46.2275 -90.3750 102° East 143 165 11,100  Level Minneapolis Center
06:43PM 46.2200 -90.3183 101° East 143 165 11,100  Level Minneapolis Center
06:44PM 46.2122 -90.2617 101° East 144 166 11,100  Level Minneapolis Center
06:45PM 46.2031 -90.1928 101° East 145 167 11,100  Level Minneapolis Center
06:46PM 46.1958 -90.1369 101° East 143 165 11,100  Level Minneapolis Center
06:47PM 46.1875 -90.0781 102° East 146 168 11,100  Level Minneapolis Center
06:48PM 46.1797 -90.0222 101° East 145 167 11,100  Level Minneapolis Center
06:49PM 46.1711 -89.9633 102° East 147 169 11,100  Level Minneapolis Center
06:51PM 46.1619 -89.9044 103° East 149 171 11,100 -60 Level Minneapolis Center
06:52PM 46.1519 -89.8369 102° East 147 169 11,000 -60 Descending Minneapolis Center
06:53PM 46.1428 -89.7783 103° East 147 169 11,000 -240 Level Minneapolis Center
06:54PM 46.1358 -89.7203 100° East 147 169 10,600 -420 Descending Minneapolis Center
06:55PM 46.1258 -89.6564 103° East 162 186 10,200 -480 Descending Minneapolis Center
06:56PM 46.1172 -89.5944 101° East 157 181 9,700 -480 Descending Minneapolis Center
06:57PM 46.1083 -89.5336 102° East 156 180 9,200 -360 Descending Minneapolis Center
06:58PM 46.0997 -89.4744 102° East 151 174 9,000 -120 Descending Minneapolis Center
06:59PM 46.0900 -89.4072 102° East 143 165 9,000  Level Minneapolis Center
07:00PM 46.0811 -89.3492 102° East 145 167 9,000  Level Minneapolis Center
07:01PM 46.0728 -89.2897 101° East 145 167 9,000 -60 Level Minneapolis Center
07:02PM 46.0639 -89.2319 102° East 147 169 8,900 -60 Descending Minneapolis Center
07:03PM 46.0553 -89.1756 102° East 146 168 8,900  Level Minneapolis Center
07:04PM 46.0469 -89.1186 102° East 145 167 8,900  Level Minneapolis Center
07:05PM 46.0383 -89.0619 102° East 146 168 8,900  Level Minneapolis Center
07:06PM 46.0297 -89.0042 102° East 148 170 8,900  Level Minneapolis Center
07:07PM 46.0192 -88.9364 103° East 145 167 8,900  Level Minneapolis Center
07:08PM 46.0114 -88.8800 101° East 144 166 9,000  Climbing Minneapolis Center
07:09PM 46.0025 -88.8222 102° East 146 168 9,000  Level Minneapolis Center
07:10PM 45.9933 -88.7664 103° East 145 167 9,000  Level Minneapolis Center
07:11PM 45.9839 -88.7083 103° East 147 169 9,000  Level Minneapolis Center
07:12PM 45.9747 -88.6497 103° East 149 171 9,000  Level Minneapolis Center
07:13PM 45.9642 -88.5792 102° East 150 173 9,000  Level Minneapolis Center
07:14PM 45.9550 -88.5208 103° East 151 174 9,000  Level Minneapolis Center
07:15PM 45.9464 -88.4631 102° East 149 171 9,000  Level Minneapolis Center
07:16PM 45.9383 -88.4056 101° East 148 170 9,000  Level Minneapolis Center
07:17PM 45.9286 -88.3492 104° East 146 168 9,000 -60 Level Minneapolis Center
07:18PM 45.9194 -88.2903 103° East 149 171 8,900 -480 Descending Minneapolis Center
07:19PM 45.9086 -88.2161 102° East 154 177 8,100 -780 Descending Minneapolis Center
07:21PM 45.8969 -88.1475 104° East 174 200 7,400 -720 Descending Minneapolis Center
07:22PM 45.8847 -88.0789 104° East 175 201 6,700 -660 Descending Minneapolis Center
07:23PM 45.8747 -88.0094 102° East 176 203 6,100 -540 Descending Minneapolis Center
07:24PM 45.8628 -87.9397 104° East 176 203 5,600 -480 Descending Minneapolis Center
07:25PM 45.8511 -87.8692 103° East 169 194 5,200 -420 Descending Minneapolis Center
07:26PM 45.8411 -87.8042 102° East 165 190 4,800 -420 Descending Minneapolis Center
07:27PM 45.8311 -87.7431 103° East 159 183 4,400 -420 Descending Minneapolis Center
07:28PM 45.8214 -87.6825 103° East 156 180 4,000 -420 Descending Minneapolis Center
07:30PM 45.7952 -87.5829 102° East  Level FlightAware Approximate
07:37PM 45.7236 -87.1744 112° Southeast  Level FlightAware Approximate
07:38PM 45.7167 -87.1156 90° East  Level FlightAware Approximate
07:39PM 45.7167 -87.0833 90° East  Level FlightAware Approximate
07:40PM 45.7227 -87.0937 90° East  Level Estimated
07:41PM 45.7227 -87.0937 90° East  Level Estimated
07:42PM 45.7227 -87.0937 90° East  Level Estimated
07:43PM 45.7227 -87.0937 90° East  Level Estimated
07:44PM 45.7227 -87.0937 90° East  Level Estimated